Weather observations for the past three days for
Hawthorne, Hawthorne Municipal Airport
Imperial (Metric)
Date Time (pdt) Wind (mph) Vis. (mi.) Weather Sky Cond. Temperature (ºF) Relative Humidity Wind Chill (°F) Heat Index (°F) Pressure Precipitation (in)
Air Dwpt 6 hour altimeter (in) sea level (mb) 1 hr 3 hr 6 hr
Max. Min.
10 12:53 W 9 10.00 Fair CLR 69.1 55.9 63% 29.94 1013.7
10 11:53 W 8 7.00 Fair CLR 71.1 57 61% 29.94 1013.6
10 10:53 NW 5 10.00 Fair CLR 71.1 55 71.1 61 57% 29.93 1013.5
10 09:53 Calm 10.00 Fair CLR 66.9 55 66% 29.93 1013.5
10 08:53 SW 5 9.00 Overcast OVC014 63 55 76% 29.93 1013.5
10 07:53 Calm 8.00 Overcast OVC010 62.1 55.9 80% 29.93 1013.5
10 06:53 S 3 7.00 Overcast OVC010 61 55.9 84% 29.92 1013.1
10 05:53 Calm 8.00 Overcast OVC009 61 55.9 84% 29.91 1012.7
10 04:53 SE 5 7.00 Overcast OVC009 61 55.9 62.1 59 84% 29.91 1012.8
10 03:53 Calm 6.00 Overcast with Haze OVC011 62.1 57 84% 29.91 1012.7
10 02:53 Calm 6.00 Overcast with Haze OVC010 62.1 57 84% 29.91 1012.7
10 01:53 Calm 5.00 Fog/Mist OVC007 61 57 87% 29.91 1012.9
10 00:53 Calm 6.00 Fog/Mist OVC006 60.1 57 90% 29.92 1013.2
09 23:53 Calm 6.00 Fog/Mist OVC006 60.1 55.9 86% 29.93 1013.3
09 22:53 Vrbl 3 6.00 Fog/Mist OVC005 60.1 55.9 68 59 86% 29.93 1013.3
09 21:53 W 5 6.00 Fog/Mist OVC005 60.1 55.9 86% 29.93 1013.5
09 20:53 NW 6 7.00 Overcast OVC006 60.1 55.9 86% 29.92 1013.0
09 19:53 W 6 8.00 Overcast OVC008 61 55.9 84% 29.9 1012.3
09 18:53 NW 7 7.00 Overcast OVC009 63 57 81% 29.88 1011.9
09 17:53 W 10 8.00 Mostly Cloudy BKN011 64.9 57 76% 29.88 1011.6
09 16:53 W 12 10.00 Fair CLR 68 57 72 66.9 68% 29.88 1011.7
09 15:53 W 10 10.00 Fair CLR 69.1 57 66% 29.88 1011.6
09 14:53 W 10 G 18 8.00 Fair CLR 70 57 64% 29.9 1012.5
09 13:53 NW 8 10.00 Fair CLR 70 57 64% 29.92 1012.9
09 12:53 W 9 10.00 Fair CLR 70 57 64% 29.92 1013.2
09 11:53 Vrbl 6 9.00 Partly Cloudy SCT018 69.1 57 66% 29.94 1013.8
09 10:53 Calm 7.00 Mostly Cloudy BKN018 66.9 57 66.9 61 71% 29.95 1014.0
09 09:53 S 5 7.00 Overcast OVC014 64 57 78% 29.94 1013.8
09 08:53 SE 6 7.00 Overcast OVC012 63 57 81% 29.95 1014.0
09 07:53 SE 6 7.00 Overcast OVC011 62.1 57 84% 29.95 1014.0
09 06:53 Calm 7.00 Overcast OVC010 61 57 87% 29.94 1013.7
09 05:53 Vrbl 5 8.00 Overcast OVC009 61 55.9 84% 29.93 1013.3
09 04:53 Vrbl 6 8.00 Overcast OVC010 61 57 63 60.1 87% 29.93 1013.3
09 03:53 S 6 7.00 Overcast OVC011 62.1 57 84% 29.93 1013.3
09 02:53 E 3 7.00 Overcast OVC011 62.1 57 84% 29.93 1013.5
09 01:53 Calm 8.00 Overcast OVC011 62.1 55.9 80% 29.94 1013.8
09 00:53 Calm 9.00 Overcast OVC010 61 55.9 84% 29.96 1014.3
08 23:53 Calm 9.00 Overcast OVC009 61 55.9 84% 29.96 1014.5
08 22:53 NW 3 9.00 Overcast OVC009 61 55.9 66.9 60.1 84% 29.97 1014.7
08 21:53 SW 5 10.00 Overcast OVC008 61 55.9 84% 29.97 1014.6
08 20:53 W 7 10.00 Overcast OVC009 61 55.9 84% 29.96 1014.4
08 19:53 W 6 10.00 Overcast OVC010 62.1 55.9 80% 29.94 1013.8
08 18:53 W 8 10.00 Overcast OVC011 64 55.9 75% 29.93 1013.4
08 17:53 W 9 10.00 Overcast OVC012 64.9 57 76% 29.93 1013.3
08 16:53 W 13 10.00 A Few Clouds FEW015 66.9 57 70 64.9 71% 29.93 1013.4
08 15:53 W 13 10.00 Fair CLR 69.1 57 66% 29.94 1013.8
08 14:53 W 10 G 20 10.00 Fair CLR 69.1 57 66% 29.96 1014.6
08 13:53 W 9 10.00 Fair CLR 69.1 57 66% 29.98 1015.1
08 12:53 W 10 10.00 Overcast OVC020 68 57 68% 29.99 1015.6
08 11:53 W 7 10.00 Overcast OVC020 66 57 73% 30.01 1016.1
08 10:53 Calm 10.00 Overcast OVC017 64.9 55.9 64.9 62.1 73% 30.02 1016.4
08 09:53 SE 5 10.00 Overcast OVC015 64 55.9 75% 30.02 1016.5
08 08:53 Calm 10.00 Overcast OVC013 63 55.9 78% 30.02 1016.4
08 07:53 SE 6 10.00 Overcast OVC011 62.1 55.9 80% 30.02 1016.5
08 06:53 Vrbl 5 10.00 Overcast OVC011 62.1 57 84% 30.01 1016.2
08 05:53 Vrbl 3 10.00 Overcast OVC011 62.1 55.9 80% 30 1015.9
08 04:53 Calm 9.00 Overcast OVC013 62.1 55 63 61 78% 30 1015.6
08 03:53 SE 7 10.00 Overcast OVC013 62.1 55 78% 29.99 1015.4
08 02:53 S 6 10.00 Overcast OVC013 62.1 55.9 80% 29.99 1015.5
08 01:53 Calm 10.00 Overcast OVC013 62.1 55.9 80% 30 1015.8
08 00:53 Calm 10.00 Partly Cloudy SCT015 61 55.9 84% 30.01 1016.2
07 23:53 NW 3 10.00 Mostly Cloudy BKN010 61 57 87% 30.01 1016.1
07 22:53 SW 3 10.00 Fair CLR 62.1 57 68 62.1 84% 30.01 1016.0
07 21:53 W 5 10.00 Fair CLR 62.1 57 84% 30 1015.8
07 20:53 W 3 10.00 Fair CLR 62.1 55.9 80% 29.98 1015.2
07 19:53 W 7 10.00 Fair CLR 64 55.9 75% 29.96 1014.5
07 18:53 SW 9 10.00 Fair CLR 64.9 55.9 73% 29.95 1014.0
07 17:53 W 9 10.00 Fair CLR 66.9 55.9 68% 29.94 1013.9
07 16:53 SW 9 10.00 Fair CLR 66.9 55.9 70 66.9 68% 29.95 1014.0
07 15:53 W 13 G 18 10.00 Fair CLR 69.1 57 66% 29.95 1014.1
07 14:53 W 13 10.00 Fair CLR 69.1 55.9 63% 29.97 1014.7
07 13:53 W 13 G 21 10.00 Fair CLR 69.1 55.9 63% 29.98 1015.2
Date Time (pdt) Wind (mph) Vis. (mi.) Weather Sky Cond. Air Dwpt Max. Min. Relative Humidity Wind Chill (°F) Heat Index (°F) altimeter (in) sea level (mb) 1 hr 3 hr 6 hr
6 hour
Temperature (ºF) Pressure Precipitation (in)